Whaley Lake, New York
Current Conditions -  °F | °C
As of 4:53 PM on Tuesday 21 Oct 2014 (Local Time) from KPOU Reporting Station
Scattered Clouds Scattered Clouds  
Wind Chill: 13°   Ceiling: Unl
Heat Index: 13°   Visibility: 10mi
Dew Point: 10°   Wind: 6mph
Humidity: 83%   Direction: 10°N
Pressure: 29.87"   Gusts: NA
Location:  41.5306°N, 73.6674°W
Report Text: KPOU 212053Z 01005KT 10SM FEW046 SCT095 13/10 A2987 RMK AO2 SLP112 T01280100 55002
Loading
Personal Weather Stations






























Interactive Weather Map
Tropical Storm Tracking
New forecast layout! Learn more

10-Day Weather Forecast

Advertisements
Track Severe Weather on mobile